Time;durP1;ratioP1;P1;durP2;ratioP2;P2;SDS_P1;SDS_P2;PMS_P1;PMS_P2;Temp;Humidity;BMP_temperature;BMP_pressure;BME280_temperature;BME280_humidity;BME280_pressure;Samples;Min_cycle;Max_cycle;Signal;HPM_P1;HPM_P2
2021/06/27 00:02:00;;;;;;;12.15;10.85;;;20.00;81.10;;;;;;5037584;28;20481;-66
2021/06/27 00:04:25;;;;;;;12.63;10.98;;;20.00;81.20;;;;;;5034812;28;20035;-66
2021/06/27 00:06:51;;;;;;;14.43;12.88;;;20.00;81.30;;;;;;5035854;28;20075;-66
2021/06/27 00:09:17;;;;;;;13.48;12.07;;;19.90;81.40;;;;;;5033875;28;20451;-66
2021/06/27 00:11:42;;;;;;;13.43;12.07;;;20.00;81.60;;;;;;5033633;28;20026;-66
2021/06/27 00:14:08;;;;;;;13.88;12.35;;;19.90;81.70;;;;;;5036297;28;20488;-66
2021/06/27 00:16:35;;;;;;;14.50;13.10;;;19.90;82.00;;;;;;5033991;28;20041;-66
2021/06/27 00:19:02;;;;;;;13.75;12.20;;;19.90;82.20;;;;;;5034120;28;20045;-66
2021/06/27 00:21:28;;;;;;;15.18;13.57;;;19.90;82.40;;;;;;5033473;28;20031;-66
2021/06/27 00:23:53;;;;;;;15.65;14.07;;;19.80;82.70;;;;;;5031610;28;20029;-66
2021/06/27 00:26:23;;;;;;;17.27;13.15;;;19.80;83.10;;;;;;5035137;28;20044;-66
2021/06/27 00:28:50;;;;;;;19.00;16.15;;;19.80;83.40;;;;;;5034551;28;20039;-66
2021/06/27 00:31:16;;;;;;;17.52;15.68;;;19.80;83.90;;;;;;5036304;28;20060;-66
2021/06/27 00:33:41;;;;;;;17.25;14.27;;;19.80;84.20;;;;;;5033770;28;20477;-66
2021/06/27 00:36:07;;;;;;;18.63;16.65;;;19.70;84.40;;;;;;5034435;28;20057;-66
2021/06/27 00:38:34;;;;;;;20.05;17.88;;;19.70;84.90;;;;;;5032937;28;20040;-66
2021/06/27 00:41:00;;;;;;;17.83;14.60;;;19.70;85.50;;;;;;5031432;28;20394;-66
2021/06/27 00:43:26;;;;;;;18.30;16.17;;;19.60;85.70;;;;;;5040360;28;20108;-66
2021/06/27 00:45:51;;;;;;;17.92;16.13;;;19.60;86.10;;;;;;5034562;28;20040;-66
2021/06/27 00:48:17;;;;;;;20.17;16.50;;;19.60;86.60;;;;;;5041653;28;20025;-66
2021/06/27 00:50:46;;;;;;;19.52;16.80;;;19.60;86.80;;;;;;5033685;28;20551;-66
2021/06/27 00:53:12;;;;;;;17.98;15.13;;;19.50;87.10;;;;;;5034163;28;20022;-66
2021/06/27 00:55:39;;;;;;;17.83;15.65;;;19.50;87.30;;;;;;5032794;28;20026;-66
2021/06/27 00:58:05;;;;;;;18.77;16.77;;;19.50;87.60;;;;;;5032781;28;20165;-67
2021/06/27 01:00:34;;;;;;;19.33;17.33;;;19.50;87.80;;;;;;5034759;28;20085;-66
2021/06/27 01:03:00;;;;;;;19.27;16.73;;;19.50;88.10;;;;;;5034406;28;20026;-66
2021/06/27 01:05:28;;;;;;;20.55;18.38;;;19.50;88.30;;;;;;5035918;28;20036;-66
2021/06/27 01:07:55;;;;;;;18.23;16.33;;;19.40;88.60;;;;;;5033434;28;20052;-66
2021/06/27 01:10:21;;;;;;;19.77;16.27;;;19.40;88.80;;;;;;5033227;28;20029;-66
2021/06/27 01:12:47;;;;;;;19.88;17.17;;;19.40;89.00;;;;;;5036307;28;20476;-66
2021/06/27 01:15:15;;;;;;;18.83;16.83;;;19.40;89.30;;;;;;5033780;28;20099;-66
2021/06/27 01:17:45;;;;;;;17.30;15.45;;;19.40;89.40;;;;;;5037056;28;20020;-66
2021/06/27 01:20:29;;;;;;;21.25;19.02;;;19.30;89.50;;;;;;5031567;28;20049;-66
2021/06/27 01:22:57;;;;;;;20.50;17.80;;;19.30;89.90;;;;;;5033146;28;20390;-66
2021/06/27 01:25:25;;;;;;;21.92;19.48;;;19.30;90.10;;;;;;5032189;28;20121;-66
2021/06/27 01:27:52;;;;;;;20.85;17.73;;;19.30;90.30;;;;;;5038024;28;20092;-66
2021/06/27 01:30:18;;;;;;;20.40;18.23;;;19.30;90.30;;;;;;5037741;28;20096;-66
2021/06/27 01:32:46;;;;;;;20.88;18.10;;;19.30;90.40;;;;;;5038641;28;20017;-66
2021/06/27 01:35:14;;;;;;;20.80;18.23;;;19.20;90.40;;;;;;5036971;28;20033;-66
2021/06/27 01:37:41;;;;;;;22.35;17.50;;;19.30;90.50;;;;;;5036581;28;20024;-66
2021/06/27 01:40:08;;;;;;;21.65;17.92;;;19.30;90.60;;;;;;5036633;28;20127;-66
2021/06/27 01:42:34;;;;;;;18.08;14.73;;;19.20;90.60;;;;;;5041286;28;20030;-66
2021/06/27 01:45:15;;;;;;;24.35;20.58;;;19.20;90.70;;;;;;5040445;28;20021;-66
2021/06/27 01:47:41;;;;;;;20.50;18.33;;;19.20;90.90;;;;;;5037607;28;20028;-66
2021/06/27 01:50:09;;;;;;;21.00;18.70;;;19.20;91.10;;;;;;5038723;28;20477;-65
2021/06/27 01:52:35;;;;;;;25.95;20.27;;;19.20;91.20;;;;;;5036925;28;20017;-66
2021/06/27 01:55:01;;;;;;;22.05;18.70;;;19.20;91.30;;;;;;5035814;28;20393;-66
2021/06/27 01:57:27;;;;;;;23.73;19.95;;;19.20;91.40;;;;;;5035729;28;20087;-66
2021/06/27 01:59:53;;;;;;;22.98;19.98;;;19.10;91.50;;;;;;5035180;28;20382;-66
2021/06/27 02:02:19;;;;;;;22.65;20.20;;;19.10;91.60;;;;;;5037616;28;20491;-66
2021/06/27 02:04:45;;;;;;;24.05;21.08;;;19.10;91.70;;;;;;5036132;28;20021;-66
2021/06/27 02:07:11;;;;;;;22.35;19.60;;;19.10;91.80;;;;;;5037211;28;20017;-66
2021/06/27 02:09:37;;;;;;;23.95;20.25;;;19.10;91.90;;;;;;5034989;28;20474;-66
2021/06/27 02:12:03;;;;;;;22.77;19.48;;;19.00;92.00;;;;;;5037434;28;20592;-66
2021/06/27 02:14:29;;;;;;;21.48;19.15;;;19.00;92.10;;;;;;5039629;28;20024;-66
2021/06/27 02:16:54;;;;;;;23.85;20.70;;;19.00;92.30;;;;;;5041853;28;20014;-66
2021/06/27 02:19:20;;;;;;;23.23;19.48;;;19.00;92.40;;;;;;5041420;28;20128;-65
2021/06/27 02:21:45;;;;;;;23.90;21.20;;;18.90;92.40;;;;;;5035682;28;20028;-65
2021/06/27 02:24:11;;;;;;;22.52;20.10;;;18.90;92.60;;;;;;5035473;28;20025;-66
2021/06/27 02:26:37;;;;;;;24.95;21.13;;;18.90;92.70;;;;;;5034680;28;20022;-66
2021/06/27 02:29:05;;;;;;;26.85;24.05;;;18.90;92.80;;;;;;5037067;28;20025;-65
2021/06/27 02:31:32;;;;;;;24.38;21.27;;;18.90;93.10;;;;;;5038369;28;20079;-66
2021/06/27 02:33:59;;;;;;;27.75;23.48;;;18.80;93.10;;;;;;5036241;28;20354;-65
2021/06/27 02:36:25;;;;;;;26.75;22.60;;;18.80;93.20;;;;;;5042629;28;20028;-66
2021/06/27 02:38:51;;;;;;;28.83;24.48;;;18.80;93.30;;;;;;5034202;28;20026;-65
2021/06/27 02:41:18;;;;;;;27.25;24.30;;;18.80;93.60;;;;;;5035327;28;20496;-66
2021/06/27 02:43:44;;;;;;;27.92;23.35;;;18.70;93.80;;;;;;5034293;28;20024;-66
2021/06/27 02:46:09;;;;;;;27.35;24.20;;;18.70;93.90;;;;;;5036596;28;20021;-66
2021/06/27 02:48:36;;;;;;;30.85;26.02;;;18.70;94.00;;;;;;5049547;28;20381;-66
2021/06/27 02:51:02;;;;;;;28.35;23.90;;;18.70;94.30;;;;;;5035931;28;20072;-67
2021/06/27 02:53:27;;;;;;;29.65;26.38;;;18.60;94.40;;;;;;5036585;28;20470;-66
2021/06/27 02:56:08;;;;;;;26.92;23.65;;;18.70;94.60;;;;;;5033813;28;20040;-65
2021/06/27 02:58:40;;;;;;;23.83;21.10;;;18.60;94.60;;;;;;5035105;28;20478;-65
2021/06/27 03:01:06;;;;;;;28.95;24.67;;;18.60;94.70;;;;;;5032810;28;20033;-66
2021/06/27 03:03:33;;;;;;;28.77;24.67;;;18.60;94.80;;;;;;5038691;28;20025;-66
2021/06/27 03:05:58;;;;;;;33.25;27.30;;;18.60;95.00;;;;;;5034684;28;20528;-66
2021/06/27 03:08:24;;;;;;;30.90;27.15;;;18.60;95.10;;;;;;5036653;28;20017;-66
2021/06/27 03:10:49;;;;;;;30.88;26.65;;;18.50;95.30;;;;;;5036662;28;20486;-65
2021/06/27 03:13:15;;;;;;;30.80;25.35;;;18.50;95.40;;;;;;5036423;28;20018;-65
2021/06/27 03:15:40;;;;;;;30.70;25.95;;;18.50;95.50;;;;;;5036698;28;20489;-66
2021/06/27 03:18:06;;;;;;;34.22;29.50;;;18.50;95.60;;;;;;5036776;28;20496;-65
2021/06/27 03:20:31;;;;;;;34.45;26.63;;;18.40;95.80;;;;;;5034638;28;20041;-65
2021/06/27 03:22:57;;;;;;;33.22;27.45;;;18.40;95.90;;;;;;5035169;28;20056;-66
2021/06/27 03:25:25;;;;;;;31.67;26.88;;;18.40;96.10;;;;;;5032555;28;20394;-66
2021/06/27 03:27:52;;;;;;;30.30;26.00;;;18.40;96.20;;;;;;5036081;28;20542;-66
2021/06/27 03:30:18;;;;;;;33.00;27.23;;;18.40;96.20;;;;;;5035791;28;20479;-66
2021/06/27 03:32:44;;;;;;;31.33;27.63;;;18.40;96.30;;;;;;5036606;28;20029;-66
2021/06/27 03:35:10;;;;;;;34.13;27.92;;;18.30;96.40;;;;;;5035182;28;20045;-66
2021/06/27 03:37:39;;;;;;;29.63;24.88;;;18.30;96.40;;;;;;5034616;28;20060;-66
2021/06/27 03:40:05;;;;;;;28.87;24.33;;;18.40;96.50;;;;;;5035211;28;20033;-66
2021/06/27 03:42:30;;;;;;;28.05;23.35;;;18.30;96.40;;;;;;5033537;28;20033;-66
2021/06/27 03:44:56;;;;;;;24.70;21.50;;;18.30;96.40;;;;;;5035953;28;20112;-66
2021/06/27 03:47:24;;;;;;;27.00;24.10;;;18.30;96.40;;;;;;5035351;28;20071;-66
2021/06/27 03:49:49;;;;;;;24.88;21.83;;;18.30;96.40;;;;;;5036543;28;20127;-66
2021/06/27 03:52:15;;;;;;;32.28;28.00;;;18.30;96.50;;;;;;5033249;28;20077;-66
2021/06/27 03:54:41;;;;;;;31.90;28.15;;;18.30;96.60;;;;;;5033010;28;20473;-66
2021/06/27 03:57:06;;;;;;;33.35;27.40;;;18.30;96.70;;;;;;5034482;28;20029;-66
2021/06/27 03:59:32;;;;;;;30.65;27.23;;;18.40;96.80;;;;;;5033669;28;20018;-66
2021/06/27 04:01:57;;;;;;;36.75;28.80;;;18.30;96.90;;;;;;5034383;28;20506;-66
2021/06/27 04:04:23;;;;;;;30.73;25.83;;;18.30;97.00;;;;;;5035026;28;20025;-66
2021/06/27 04:06:48;;;;;;;36.80;28.20;;;18.30;97.00;;;;;;5036420;28;20100;-66
2021/06/27 04:09:14;;;;;;;30.92;26.70;;;18.30;97.00;;;;;;5034180;28;20025;-66
2021/06/27 04:11:39;;;;;;;28.50;25.10;;;18.30;97.00;;;;;;5035477;28;20040;-66
2021/06/27 04:14:05;;;;;;;26.33;22.92;;;18.30;97.00;;;;;;5036901;28;20029;-66
2021/06/27 04:16:32;;;;;;;29.98;25.70;;;18.40;97.00;;;;;;5035516;28;20507;-66
2021/06/27 04:18:58;;;;;;;30.70;25.58;;;18.40;97.00;;;;;;5033926;28;20065;-66
2021/06/27 04:21:25;;;;;;;34.97;28.35;;;18.40;97.00;;;;;;5034894;28;20057;-66
2021/06/27 04:23:50;;;;;;;29.48;25.13;;;18.50;97.00;;;;;;5033509;28;20017;-66
2021/06/27 04:26:16;;;;;;;29.73;25.75;;;18.50;97.00;;;;;;5031939;28;20029;-66
2021/06/27 04:28:42;;;;;;;31.95;27.92;;;18.50;97.00;;;;;;5035190;28;20022;-66
2021/06/27 04:31:07;;;;;;;32.03;28.45;;;18.50;97.00;;;;;;5036861;28;20038;-66
2021/06/27 04:33:33;;;;;;;30.33;25.75;;;18.50;97.00;;;;;;5034108;28;20366;-66
2021/06/27 04:35:59;;;;;;;32.58;27.58;;;18.50;97.00;;;;;;5034102;28;20017;-66
2021/06/27 04:38:25;;;;;;;31.67;25.80;;;18.50;97.10;;;;;;5034500;28;20025;-66
2021/06/27 04:40:51;;;;;;;31.15;27.17;;;18.60;97.10;;;;;;5031832;28;20398;-66
2021/06/27 04:43:16;;;;;;;33.55;28.98;;;18.60;97.10;;;;;;5032980;28;20531;-66
2021/06/27 04:45:43;;;;;;;31.30;27.58;;;18.60;97.20;;;;;;5034888;28;20028;-66
2021/06/27 04:48:09;;;;;;;33.95;26.75;;;18.60;97.20;;;;;;5036584;28;20025;-66
2021/06/27 04:50:36;;;;;;;31.80;24.95;;;18.70;97.20;;;;;;5034004;28;20025;-66
2021/06/27 04:53:02;;;;;;;36.33;28.60;;;18.80;97.20;;;;;;5034249;28;20036;-66
2021/06/27 04:55:27;;;;;;;29.23;25.55;;;18.80;97.20;;;;;;5032726;28;21114;-66
2021/06/27 04:57:53;;;;;;;32.35;27.83;;;18.80;97.20;;;;;;5032936;28;20018;-66
2021/06/27 05:00:19;;;;;;;34.00;27.35;;;18.80;97.20;;;;;;5031669;28;20144;-66
2021/06/27 05:02:44;;;;;;;31.83;25.65;;;18.80;97.20;;;;;;5037044;28;20049;-66
2021/06/27 05:05:11;;;;;;;28.80;25.23;;;18.80;97.10;;;;;;5040564;28;20073;-66
2021/06/27 05:07:36;;;;;;;30.58;25.80;;;18.90;97.10;;;;;;5037927;28;20077;-66
2021/06/27 05:10:03;;;;;;;32.00;26.77;;;18.90;97.10;;;;;;5036436;28;20422;-66
2021/06/27 05:12:29;;;;;;;28.25;25.25;;;18.90;97.10;;;;;;5038400;28;20099;-66
2021/06/27 05:14:54;;;;;;;28.98;24.98;;;18.90;97.00;;;;;;5038315;28;20057;-66
2021/06/27 05:17:20;;;;;;;31.48;26.23;;;18.90;97.00;;;;;;5039423;28;20099;-66
2021/06/27 05:19:46;;;;;;;28.95;25.40;;;19.00;97.00;;;;;;5037837;28;20064;-66
2021/06/27 05:22:12;;;;;;;28.67;25.42;;;19.00;96.90;;;;;;5035667;28;20018;-66
2021/06/27 05:24:37;;;;;;;27.45;23.42;;;19.10;96.80;;;;;;5055116;28;20032;-66
2021/06/27 05:27:03;;;;;;;28.08;23.95;;;19.10;96.70;;;;;;5056575;28;20107;-66
2021/06/27 05:29:29;;;;;;;26.00;22.90;;;19.20;96.60;;;;;;5056183;28;20029;-66
2021/06/27 05:31:54;;;;;;;25.23;22.10;;;19.30;96.50;;;;;;5056427;28;20392;-66
2021/06/27 05:34:20;;;;;;;29.95;25.23;;;19.30;96.40;;;;;;5056280;28;20503;-66
2021/06/27 05:36:45;;;;;;;29.25;26.10;;;19.30;96.30;;;;;;5054987;28;20513;-66
2021/06/27 05:39:12;;;;;;;28.83;24.92;;;19.40;96.30;;;;;;5056405;28;20464;-66
2021/06/27 05:41:39;;;;;;;27.13;23.08;;;19.50;96.30;;;;;;5056250;28;20091;-66
2021/06/27 05:44:06;;;;;;;27.73;23.23;;;19.50;96.10;;;;;;5056210;28;20025;-66
2021/06/27 05:46:32;;;;;;;27.55;24.10;;;19.60;96.00;;;;;;5054775;28;20025;-66
2021/06/27 05:48:58;;;;;;;28.27;25.13;;;19.60;96.00;;;;;;5056020;28;20086;-66
2021/06/27 05:51:25;;;;;;;25.80;23.08;;;19.70;95.90;;;;;;5055889;28;20431;-66
2021/06/27 05:53:50;;;;;;;25.80;23.00;;;19.70;95.80;;;;;;5055951;28;20021;-66
2021/06/27 05:56:18;;;;;;;24.33;20.70;;;19.70;95.70;;;;;;5055852;28;20025;-66
2021/06/27 05:58:45;;;;;;;27.23;23.55;;;19.80;95.90;;;;;;5055893;28;20442;-66
2021/06/27 06:01:12;;;;;;;24.73;21.10;;;19.70;95.50;;;;;;5062123;28;20086;-66
2021/06/27 06:03:39;;;;;;;21.80;18.95;;;19.80;95.40;;;;;;5063235;28;20032;-66
2021/06/27 06:06:05;;;;;;;18.35;16.40;;;19.80;95.30;;;;;;5056993;28;20382;-66
2021/06/27 06:08:32;;;;;;;22.65;18.52;;;19.90;95.30;;;;;;5047393;28;20028;-66
2021/06/27 06:10:58;;;;;;;19.38;16.58;;;19.90;95.20;;;;;;5044889;28;20033;-66
2021/06/27 06:13:23;;;;;;;20.65;18.30;;;20.00;95.10;;;;;;5040840;28;20378;-66
2021/06/27 06:15:49;;;;;;;23.08;19.92;;;20.00;95.00;;;;;;5035536;28;20372;-66
2021/06/27 06:18:15;;;;;;;22.75;18.50;;;20.00;94.90;;;;;;5053938;28;20040;-66
2021/06/27 06:20:41;;;;;;;21.40;17.63;;;20.00;94.80;;;;;;5055033;28;20061;-66
2021/06/27 06:23:07;;;;;;;19.33;16.23;;;20.10;94.80;;;;;;5055488;28;20036;-66
2021/06/27 06:25:34;;;;;;;18.83;16.58;;;20.20;94.70;;;;;;5055488;28;20045;-66
2021/06/27 06:27:59;;;;;;;20.90;18.67;;;20.30;94.70;;;;;;5055238;28;20051;-66
2021/06/27 06:30:25;;;;;;;22.70;19.38;;;20.30;94.50;;;;;;5055077;28;20075;-66
2021/06/27 06:32:51;;;;;;;19.63;17.23;;;20.40;94.40;;;;;;5054670;28;20029;-66
2021/06/27 06:35:16;;;;;;;21.77;19.48;;;20.50;94.30;;;;;;5055344;28;20029;-66
2021/06/27 06:37:42;;;;;;;20.92;18.67;;;20.60;94.20;;;;;;5055015;28;20017;-66
2021/06/27 06:40:09;;;;;;;20.88;17.75;;;20.60;94.10;;;;;;5055168;28;20389;-66
2021/06/27 06:42:34;;;;;;;21.65;19.40;;;20.70;94.10;;;;;;5054608;28;20029;-66
2021/06/27 06:45:00;;;;;;;19.08;16.70;;;20.80;94.00;;;;;;5054664;28;20036;-66
2021/06/27 06:47:25;;;;;;;20.27;17.83;;;20.90;93.80;;;;;;5054107;28;20066;-66
2021/06/27 06:49:51;;;;;;;18.42;16.45;;;21.00;93.60;;;;;;5051421;28;21168;-66
2021/06/27 06:52:17;;;;;;;17.08;15.32;;;21.00;93.40;;;;;;5044011;28;20025;-66
2021/06/27 06:54:43;;;;;;;18.58;16.67;;;21.10;93.20;;;;;;5042246;28;20108;-66
2021/06/27 06:57:09;;;;;;;18.58;16.60;;;21.20;93.00;;;;;;5048833;28;20096;-66
2021/06/27 06:59:34;;;;;;;17.42;15.32;;;21.20;92.80;;;;;;5035125;28;20013;-66
2021/06/27 07:02:00;;;;;;;16.27;14.50;;;21.30;92.70;;;;;;5048658;28;20025;-66
2021/06/27 07:04:26;;;;;;;18.52;15.07;;;21.40;92.60;;;;;;5033179;28;20010;-66
2021/06/27 07:06:51;;;;;;;14.23;12.77;;;21.40;92.40;;;;;;5034900;28;20025;-66
2021/06/27 07:09:17;;;;;;;15.32;13.23;;;21.50;92.20;;;;;;5036153;28;20040;-66
2021/06/27 07:11:43;;;;;;;16.30;14.63;;;21.60;92.10;;;;;;5036159;28;20018;-66
2021/06/27 07:14:08;;;;;;;17.05;15.27;;;21.60;92.00;;;;;;5036215;28;20544;-66
2021/06/27 07:16:34;;;;;;;19.95;17.92;;;21.70;91.90;;;;;;5039311;28;20020;-66
2021/06/27 07:19:00;;;;;;;18.08;16.15;;;21.70;91.80;;;;;;5049700;28;20481;-66
2021/06/27 07:21:29;;;;;;;17.15;15.45;;;21.80;91.80;;;;;;5034265;28;20056;-66
2021/06/27 07:23:56;;;;;;;20.13;17.98;;;21.80;91.70;;;;;;5039901;28;20035;-66
2021/06/27 07:26:22;;;;;;;22.35;18.55;;;21.90;91.60;;;;;;5051128;28;20021;-66
2021/06/27 07:28:47;;;;;;;19.67;17.05;;;21.90;91.50;;;;;;5052726;28;20071;-66
2021/06/27 07:31:13;;;;;;;18.13;16.20;;;21.90;91.30;;;;;;5053942;28;20365;-66
2021/06/27 07:33:38;;;;;;;18.90;15.95;;;22.00;91.20;;;;;;5052774;28;20022;-66
2021/06/27 07:36:05;;;;;;;19.80;16.90;;;22.10;91.10;;;;;;5052688;28;20473;-66
2021/06/27 07:38:30;;;;;;;18.75;15.45;;;22.20;90.80;;;;;;5035478;28;20031;-66
2021/06/27 07:40:56;;;;;;;15.32;13.82;;;22.20;90.70;;;;;;5052939;28;20029;-66
2021/06/27 07:43:22;;;;;;;15.32;13.73;;;22.30;90.70;;;;;;5053017;28;20506;-66
2021/06/27 07:45:47;;;;;;;14.60;13.15;;;22.40;90.60;;;;;;5052780;28;20047;-66
2021/06/27 07:48:13;;;;;;;17.23;15.48;;;22.40;90.40;;;;;;5052882;28;20477;-66
2021/06/27 07:50:39;;;;;;;15.88;14.30;;;22.50;90.20;;;;;;5052703;28;20025;-66
2021/06/27 07:53:04;;;;;;;15.82;14.15;;;22.50;90.00;;;;;;5052630;28;20040;-66
2021/06/27 07:55:30;;;;;;;15.32;13.73;;;22.60;89.80;;;;;;5051394;28;20427;-66
2021/06/27 07:57:55;;;;;;;14.45;13.05;;;22.70;89.80;;;;;;5052649;28;20032;-66
2021/06/27 08:00:22;;;;;;;13.82;11.95;;;22.70;90.00;;;;;;5052524;28;20021;-66
2021/06/27 08:02:48;;;;;;;13.02;11.63;;;22.80;89.20;;;;;;5052103;28;20028;-66
2021/06/27 08:05:14;;;;;;;14.00;11.57;;;22.90;88.90;;;;;;5050702;28;20051;-66
2021/06/27 08:07:39;;;;;;;14.38;12.98;;;23.00;88.70;;;;;;5050932;28;20032;-66
2021/06/27 08:10:07;;;;;;;15.18;13.38;;;23.00;88.40;;;;;;5052535;28;20017;-66
2021/06/27 08:12:33;;;;;;;16.45;14.75;;;23.10;88.00;;;;;;5053307;28;20037;-66
2021/06/27 08:14:59;;;;;;;16.15;14.55;;;23.20;87.60;;;;;;5052738;28;20127;-66
2021/06/27 08:17:24;;;;;;;15.48;13.88;;;23.20;87.40;;;;;;5044712;28;20025;-66
2021/06/27 08:19:50;;;;;;;16.30;14.60;;;23.20;87.10;;;;;;5033127;28;20414;-66
2021/06/27 08:22:16;;;;;;;15.13;13.52;;;23.20;87.00;;;;;;5031774;28;20537;-66
2021/06/27 08:24:42;;;;;;;15.73;14.05;;;23.30;86.90;;;;;;5031822;28;20029;-66
2021/06/27 08:27:08;;;;;;;14.60;13.07;;;23.30;87.40;;;;;;5035753;28;20136;-66
2021/06/27 08:29:34;;;;;;;16.10;14.38;;;23.40;86.60;;;;;;5033969;28;20100;-66
2021/06/27 08:32:00;;;;;;;13.82;12.43;;;23.40;86.30;;;;;;5033988;28;20113;-66
2021/06/27 08:34:25;;;;;;;14.43;13.02;;;23.50;86.20;;;;;;5033720;28;20029;-66
2021/06/27 08:36:51;;;;;;;13.35;11.98;;;23.60;86.20;;;;;;5032064;28;20108;-66
2021/06/27 08:39:16;;;;;;;12.45;11.25;;;23.60;86.10;;;;;;5032597;28;20025;-66
2021/06/27 08:41:42;;;;;;;13.48;12.20;;;23.80;85.90;;;;;;5030758;28;20022;-66
2021/06/27 08:44:12;;;;;;;15.13;13.63;;;23.80;85.50;;;;;;5036602;28;20021;-66
2021/06/27 08:46:41;;;;;;;13.77;12.38;;;23.90;85.00;;;;;;5033959;28;21065;-66
2021/06/27 08:49:08;;;;;;;14.23;12.82;;;24.00;84.60;;;;;;5036207;28;20062;-66
2021/06/27 08:51:39;;;;;;;13.95;12.45;;;24.10;84.10;;;;;;5032261;28;20044;-66
2021/06/27 08:54:09;;;;;;;12.63;11.38;;;24.20;83.90;;;;;;5032686;28;20017;-66
2021/06/27 08:56:36;;;;;;;15.07;13.57;;;24.30;83.50;;;;;;5032930;28;20014;-66
2021/06/27 08:59:02;;;;;;;12.80;11.52;;;24.30;83.10;;;;;;5032564;28;20473;-66
2021/06/27 09:01:28;;;;;;;12.70;11.40;;;24.50;83.10;;;;;;5034614;28;20037;-66
2021/06/27 09:03:58;;;;;;;12.90;11.60;;;24.50;82.80;;;;;;5034075;28;20022;-66
2021/06/27 09:06:32;;;;;;;13.13;11.15;;;24.50;82.60;;;;;;5033600;28;20484;-66
2021/06/27 09:09:14;;;;;;;12.40;11.02;;;24.60;82.60;;;;;;5032593;28;20085;-67
2021/06/27 09:11:42;;;;;;;11.60;10.48;;;24.80;82.60;;;;;;5032064;28;20033;-66
2021/06/27 09:14:27;;;;;;;12.20;11.00;;;24.90;82.70;;;;;;5031673;28;20075;-66
2021/06/27 09:17:15;;;;;;;12.82;11.52;;;25.10;82.20;;;;;;5033625;28;20022;-66
2021/06/27 09:19:56;;;;;;;12.10;10.95;;;25.20;81.90;;;;;;5038936;28;20045;-67
2021/06/27 09:22:27;;;;;;;14.70;13.20;;;25.30;81.50;;;;;;5033681;28;20477;-66
2021/06/27 09:25:10;;;;;;;14.07;12.68;;;25.30;80.90;;;;;;5035557;28;20350;-66
2021/06/27 09:27:37;;;;;;;13.07;11.80;;;25.40;80.70;;;;;;5033198;28;20024;-66
2021/06/27 09:30:13;;;;;;;16.27;11.73;;;25.50;79.90;;;;;;5033134;28;20076;-67
2021/06/27 09:32:50;;;;;;;12.57;11.32;;;25.60;79.40;;;;;;5032254;28;20060;-67
2021/06/27 09:35:38;;;;;;;11.95;10.77;;;25.60;78.90;;;;;;5031732;28;20097;-67
2021/06/27 09:38:35;;;;;;;11.18;10.18;;;25.70;78.80;;;;;;5034107;28;20020;-67
2021/06/27 09:41:12;;;;;;;11.75;10.65;;;25.80;78.60;;;;;;5033272;28;20026;-67
2021/06/27 09:43:39;;;;;;;11.23;10.18;;;25.90;78.30;;;;;;5033341;28;20034;-66
2021/06/27 09:46:12;;;;;;;10.60;9.60;;;26.00;78.00;;;;;;5032617;28;20030;-67
2021/06/27 09:48:56;;;;;;;12.80;11.45;;;26.10;78.00;;;;;;5035401;28;20033;-66
2021/06/27 09:51:25;;;;;;;12.05;10.88;;;26.20;77.60;;;;;;5036549;28;20119;-67
2021/06/27 09:53:52;;;;;;;11.23;10.13;;;26.20;77.60;;;;;;5035449;28;20057;-66
2021/06/27 09:56:20;;;;;;;13.07;11.80;;;26.30;77.50;;;;;;5035429;28;20104;-67
2021/06/27 09:59:02;;;;;;;11.93;10.77;;;26.40;77.30;;;;;;5035737;28;20022;-67
2021/06/27 10:01:30;;;;;;;14.02;11.93;;;26.50;77.00;;;;;;5035106;28;20514;-67
2021/06/27 10:03:58;;;;;;;12.88;11.57;;;26.50;76.80;;;;;;5037608;28;20025;-67
2021/06/27 10:06:51;;;;;;;11.52;10.35;;;26.60;76.80;;;;;;5038781;28;20029;-66
2021/06/27 10:09:20;;;;;;;11.18;10.18;;;26.80;76.80;;;;;;5037715;28;20022;-67
2021/06/27 10:12:12;;;;;;;13.60;12.20;;;26.80;76.60;;;;;;5034583;28;20033;-67
2021/06/27 10:14:51;;;;;;;11.10;10.07;;;26.90;76.20;;;;;;5036203;28;20021;-67
2021/06/27 10:17:18;;;;;;;13.03;11.83;;;27.00;76.00;;;;;;5037618;28;20010;-67
2021/06/27 10:19:45;;;;;;;12.07;10.85;;;27.00;75.60;;;;;;5036832;28;20120;-67
2021/06/27 10:22:11;;;;;;;14.23;12.52;;;27.20;75.20;;;;;;5036937;28;20279;-67
2021/06/27 10:24:36;;;;;;;13.02;11.80;;;27.30;74.80;;;;;;5037838;28;20470;-67
2021/06/27 10:27:03;;;;;;;12.63;11.32;;;27.30;74.20;;;;;;5036129;28;20021;-67
2021/06/27 10:29:29;;;;;;;10.35;9.40;;;27.40;74.10;;;;;;5034249;28;20014;-67
2021/06/27 10:31:57;;;;;;;12.38;11.07;;;27.50;74.00;;;;;;5035965;28;20051;-67
2021/06/27 10:34:23;;;;;;;13.52;11.20;;;27.60;73.70;;;;;;5034290;28;20044;-67
2021/06/27 10:36:57;;;;;;;11.65;10.55;;;27.70;73.10;;;;;;5036797;28;20025;-67
2021/06/27 10:39:24;;;;;;;11.60;10.48;;;27.90;73.00;;;;;;5036346;28;20013;-67
2021/06/27 10:42:01;;;;;;;10.82;9.82;;;27.90;73.10;;;;;;5037666;28;20029;-67
2021/06/27 10:44:29;;;;;;;11.65;10.52;;;28.00;72.90;;;;;;5043198;28;20175;-67
2021/06/27 10:46:58;;;;;;;12.77;11.50;;;28.10;72.50;;;;;;5047366;28;20024;-67
2021/06/27 10:49:44;;;;;;;12.27;10.90;;;28.10;71.90;;;;;;5048507;28;20388;-67
2021/06/27 10:52:11;;;;;;;11.50;10.40;;;28.10;71.60;;;;;;5041677;28;20069;-67
2021/06/27 10:54:38;;;;;;;10.95;9.85;;;28.20;71.30;;;;;;5054323;28;20029;-67
2021/06/27 10:57:16;;;;;;;12.45;11.25;;;28.20;70.90;;;;;;5053112;28;20028;-67
2021/06/27 10:59:42;;;;;;;12.10;10.30;;;28.20;70.90;;;;;;5039125;28;20439;-67
2021/06/27 11:02:39;;;;;;;10.00;9.05;;;28.30;70.80;;;;;;5054271;28;20151;-67
2021/06/27 11:05:32;;;;;;;10.30;9.30;;;28.30;70.30;;;;;;5054266;28;20021;-67
2021/06/27 11:07:59;;;;;;;11.15;10.02;;;28.30;70.10;;;;;;5054136;28;20119;-67
2021/06/27 11:10:25;;;;;;;10.82;9.80;;;28.40;69.90;;;;;;5054039;28;20039;-67
2021/06/27 11:12:59;;;;;;;10.05;8.75;;;28.40;69.50;;;;;;5053600;28;20104;-67
2021/06/27 11:15:30;;;;;;;9.85;8.95;;;28.60;69.40;;;;;;5054020;28;20056;-67
2021/06/27 11:18:07;;;;;;;10.18;9.23;;;28.80;69.30;;;;;;5052248;28;20044;-67
2021/06/27 11:20:52;;;;;;;8.20;7.40;;;28.90;68.40;;;;;;5053649;28;20051;-67
2021/06/27 11:23:19;;;;;;;9.75;8.68;;;29.00;67.50;;;;;;5053556;28;20017;-67
2021/06/27 11:25:47;;;;;;;8.48;7.68;;;29.20;66.30;;;;;;5053353;28;20389;-67
2021/06/27 11:28:18;;;;;;;8.70;7.90;;;29.30;65.90;;;;;;5053599;28;20025;-67
2021/06/27 11:30:50;;;;;;;7.95;7.20;;;29.50;65.80;;;;;;5052020;28;20021;-68
2021/06/27 11:33:24;;;;;;;10.43;9.52;;;29.60;64.80;;;;;;5052382;28;20388;-68
2021/06/27 11:35:59;;;;;;;10.23;8.48;;;29.60;64.00;;;;;;5053376;28;20017;-68
2021/06/27 11:38:41;;;;;;;6.72;6.13;;;29.60;63.80;;;;;;5049435;28;20025;-68
2021/06/27 11:41:17;;;;;;;7.03;6.43;;;29.70;64.10;;;;;;5049952;28;20358;-68
2021/06/27 11:43:59;;;;;;;9.20;6.55;;;29.80;63.90;;;;;;5048731;28;20021;-68
2021/06/27 11:46:30;;;;;;;8.30;7.50;;;29.80;63.00;;;;;;5048862;28;20029;-68
2021/06/27 11:48:57;;;;;;;8.10;7.28;;;29.80;62.00;;;;;;5051387;28;20036;-68
2021/06/27 11:51:39;;;;;;;7.43;6.72;;;29.80;61.10;;;;;;5041011;28;20033;-68
2021/06/27 11:54:06;;;;;;;6.95;6.13;;;29.90;61.00;;;;;;5052383;28;20067;-68
2021/06/27 11:56:55;;;;;;;7.90;6.85;;;30.00;61.00;;;;;;5038722;28;20025;-68
2021/06/27 11:59:25;;;;;;;7.38;6.03;;;30.20;61.10;;;;;;5050956;28;20052;-68
2021/06/27 12:02:28;;;;;;;6.80;6.07;;;30.20;60.20;;;;;;5049762;28;20060;-68
2021/06/27 12:04:56;;;;;;;6.28;5.68;;;30.30;59.70;;;;;;5030225;28;20037;-68
2021/06/27 12:07:33;;;;;;;7.32;5.10;;;30.30;59.20;;;;;;5048082;28;20029;-68
2021/06/27 12:10:06;;;;;;;5.00;4.60;;;30.40;58.40;;;;;;5049573;28;20055;-68
2021/06/27 12:12:35;;;;;;;5.50;5.00;;;30.60;57.80;;;;;;5033111;28;20017;-69
2021/06/27 12:15:02;;;;;;;6.95;6.35;;;30.70;57.70;;;;;;5032552;28;20162;-69
2021/06/27 12:17:28;;;;;;;6.00;5.50;;;30.90;57.20;;;;;;5044228;28;20104;-69
2021/06/27 12:19:54;;;;;;;5.55;5.07;;;31.00;57.60;;;;;;5052319;28;20437;-69
2021/06/27 12:22:20;;;;;;;4.13;3.78;;;31.20;57.40;;;;;;5052258;28;20033;-69
2021/06/27 12:24:46;;;;;;;4.88;4.47;;;31.40;55.60;;;;;;5035337;28;20046;-69
2021/06/27 12:27:13;;;;;;;4.40;4.00;;;31.50;54.70;;;;;;5033125;28;20111;-69
2021/06/27 12:29:52;;;;;;;4.90;4.47;;;31.50;54.30;;;;;;5031255;28;20025;-69
2021/06/27 12:32:18;;;;;;;4.50;4.10;;;31.60;53.80;;;;;;5034869;28;20059;-69
2021/06/27 12:34:44;;;;;;;4.93;4.22;;;31.70;54.00;;;;;;5042114;28;20021;-69